sensor_id;sensor_type;location;lat;lon;timestamp;temperature;humidity
6429;DHT22;3247;48.946;10.220;2023-08-06T07:17:27;16.30;99.90
6429;DHT22;3247;48.946;10.220;2023-08-06T07:19:53;16.20;99.90
6429;DHT22;3247;48.946;10.220;2023-08-06T07:22:18;16.00;99.90
6429;DHT22;3247;48.946;10.220;2023-08-06T07:24:44;15.90;99.90
6429;DHT22;3247;48.946;10.220;2023-08-06T07:27:09;16.10;99.90
6429;DHT22;3247;48.946;10.220;2023-08-06T07:29:34;15.70;99.90
6429;DHT22;3247;48.946;10.220;2023-08-06T07:32:00;15.70;99.90
6429;DHT22;3247;48.946;10.220;2023-08-06T07:34:35;15.80;99.90
6429;DHT22;3247;48.946;10.220;2023-08-06T07:37:00;15.80;99.90
6429;DHT22;3247;48.946;10.220;2023-08-06T07:39:26;16.30;99.90
6429;DHT22;3247;48.946;10.220;2023-08-06T07:41:53;16.10;99.90
6429;DHT22;3247;48.946;10.220;2023-08-06T07:44:19;16.20;99.90
6429;DHT22;3247;48.946;10.220;2023-08-06T07:46:44;16.80;99.90
6429;DHT22;3247;48.946;10.220;2023-08-06T07:49:10;16.80;99.90
6429;DHT22;3247;48.946;10.220;2023-08-06T07:51:36;17.00;99.90
6429;DHT22;3247;48.946;10.220;2023-08-06T07:54:02;17.00;99.90
6429;DHT22;3247;48.946;10.220;2023-08-06T07:56:28;17.50;99.90
6429;DHT22;3247;48.946;10.220;2023-08-06T07:58:54;16.80;99.90
6429;DHT22;3247;48.946;10.220;2023-08-06T08:01:19;16.70;99.90
6429;DHT22;3247;48.946;10.220;2023-08-06T08:03:45;16.90;99.90
6429;DHT22;3247;48.946;10.220;2023-08-06T08:06:10;17.00;99.90
6429;DHT22;3247;48.946;10.220;2023-08-06T08:08:36;18.10;99.90
6429;DHT22;3247;48.946;10.220;2023-08-06T08:11:04;17.20;99.90
6429;DHT22;3247;48.946;10.220;2023-08-06T08:13:29;17.60;99.90
6429;DHT22;3247;48.946;10.220;2023-08-06T08:15:58;17.10;99.90
6429;DHT22;3247;48.946;10.220;2023-08-06T08:18:24;16.70;99.90
6429;DHT22;3247;48.946;10.220;2023-08-06T08:20:49;16.70;99.90
6429;DHT22;3247;48.946;10.220;2023-08-06T08:23:15;16.60;99.90
6429;DHT22;3247;48.946;10.220;2023-08-06T08:25:40;16.40;99.90
6429;DHT22;3247;48.946;10.220;2023-08-06T08:28:06;16.30;99.90
6429;DHT22;3247;48.946;10.220;2023-08-06T08:30:32;16.20;99.90
6429;DHT22;3247;48.946;10.220;2023-08-06T08:33:07;16.20;99.90
6429;DHT22;3247;48.946;10.220;2023-08-06T08:35:33;16.20;99.90
6429;DHT22;3247;48.946;10.220;2023-08-06T08:37:59;16.30;99.90
6429;DHT22;3247;48.946;10.220;2023-08-06T08:40:26;16.60;99.90
6429;DHT22;3247;48.946;10.220;2023-08-06T08:42:53;16.30;99.90
6429;DHT22;3247;48.946;10.220;2023-08-06T08:45:19;16.20;99.90
6429;DHT22;3247;48.946;10.220;2023-08-06T08:47:45;16.20;99.90
6429;DHT22;3247;48.946;10.220;2023-08-06T08:50:12;15.00;99.90
6429;DHT22;3247;48.946;10.220;2023-08-06T08:52:39;16.10;99.90
6429;DHT22;3247;48.946;10.220;2023-08-06T08:55:06;16.00;99.90
6429;DHT22;3247;48.946;10.220;2023-08-06T08:57:32;15.90;99.90
6429;DHT22;3247;48.946;10.220;2023-08-06T08:59:57;15.80;99.90
6429;DHT22;3247;48.946;10.220;2023-08-06T09:02:23;15.80;99.90
6429;DHT22;3247;48.946;10.220;2023-08-06T09:04:50;15.90;99.90
6429;DHT22;3247;48.946;10.220;2023-08-06T09:07:19;16.10;99.90
6429;DHT22;3247;48.946;10.220;2023-08-06T09:09:46;16.10;99.90
6429;DHT22;3247;48.946;10.220;2023-08-06T09:12:14;17.20;99.90
6429;DHT22;3247;48.946;10.220;2023-08-06T09:14:40;16.00;99.90
6429;DHT22;3247;48.946;10.220;2023-08-06T09:17:05;15.90;99.90
6429;DHT22;3247;48.946;10.220;2023-08-06T09:19:31;15.90;99.90
6429;DHT22;3247;48.946;10.220;2023-08-06T09:21:57;16.10;99.90
6429;DHT22;3247;48.946;10.220;2023-08-06T09:24:22;16.20;99.90
6429;DHT22;3247;48.946;10.220;2023-08-06T09:26:48;16.30;99.90
6429;DHT22;3247;48.946;10.220;2023-08-06T09:29:13;16.60;99.90
6429;DHT22;3247;48.946;10.220;2023-08-06T09:31:45;16.40;99.90
6429;DHT22;3247;48.946;10.220;2023-08-06T09:37:15;16.40;99.90
6429;DHT22;3247;48.946;10.220;2023-08-06T09:39:40;16.50;99.90
6429;DHT22;3247;48.946;10.220;2023-08-06T09:42:06;16.80;99.90
6429;DHT22;3247;48.946;10.220;2023-08-06T09:44:32;18.00;99.90
6429;DHT22;3247;48.946;10.220;2023-08-06T09:46:59;17.30;99.90
6429;DHT22;3247;48.946;10.220;2023-08-06T09:49:43;17.30;99.90
6429;DHT22;3247;48.946;10.220;2023-08-06T09:52:11;17.50;99.90
6429;DHT22;3247;48.946;10.220;2023-08-06T09:54:37;17.80;99.90
6429;DHT22;3247;48.946;10.220;2023-08-06T09:57:03;17.90;99.90
6429;DHT22;3247;48.946;10.220;2023-08-06T09:59:29;18.10;99.90
6429;DHT22;3247;48.946;10.220;2023-08-06T10:01:54;18.70;99.90
6429;DHT22;3247;48.946;10.220;2023-08-06T10:04:26;18.30;99.90
6429;DHT22;3247;48.946;10.220;2023-08-06T10:06:51;18.10;99.90
6429;DHT22;3247;48.946;10.220;2023-08-06T10:09:17;18.10;99.90
6429;DHT22;3247;48.946;10.220;2023-08-06T10:11:43;18.00;99.90
6429;DHT22;3247;48.946;10.220;2023-08-06T10:14:14;17.80;99.90
6429;DHT22;3247;48.946;10.220;2023-08-06T10:16:41;17.60;99.90
6429;DHT22;3247;48.946;10.220;2023-08-06T10:19:07;17.30;99.90
6429;DHT22;3247;48.946;10.220;2023-08-06T10:21:34;17.20;99.90
6429;DHT22;3247;48.946;10.220;2023-08-06T10:23:59;17.20;99.90
6429;DHT22;3247;48.946;10.220;2023-08-06T10:26:27;17.40;99.90
6429;DHT22;3247;48.946;10.220;2023-08-06T10:28:53;17.50;99.90
6429;DHT22;3247;48.946;10.220;2023-08-06T10:31:18;17.60;99.90
6429;DHT22;3247;48.946;10.220;2023-08-06T10:33:56;18.20;99.90
6429;DHT22;3247;48.946;10.220;2023-08-06T10:36:21;17.70;99.90
6429;DHT22;3247;48.946;10.220;2023-08-06T10:38:47;17.70;99.90
6429;DHT22;3247;48.946;10.220;2023-08-06T10:41:27;17.70;99.90
6429;DHT22;3247;48.946;10.220;2023-08-06T10:43:52;17.30;99.90
6429;DHT22;3247;48.946;10.220;2023-08-06T10:46:30;17.20;99.90
6429;DHT22;3247;48.946;10.220;2023-08-06T10:48:55;17.30;99.90
6429;DHT22;3247;48.946;10.220;2023-08-06T10:51:21;18.00;99.90
6429;DHT22;3247;48.946;10.220;2023-08-06T10:53:47;17.70;99.90
6429;DHT22;3247;48.946;10.220;2023-08-06T10:56:16;17.80;99.90
6429;DHT22;3247;48.946;10.220;2023-08-06T10:58:46;17.90;99.90
6429;DHT22;3247;48.946;10.220;2023-08-06T11:01:11;18.00;99.90
6429;DHT22;3247;48.946;10.220;2023-08-06T11:03:37;18.40;99.90
6429;DHT22;3247;48.946;10.220;2023-08-06T11:06:03;17.40;99.90
6429;DHT22;3247;48.946;10.220;2023-08-06T11:08:34;18.80;99.90
6429;DHT22;3247;48.946;10.220;2023-08-06T11:11:09;18.80;99.90
6429;DHT22;3247;48.946;10.220;2023-08-06T11:13:36;18.80;99.90
6429;DHT22;3247;48.946;10.220;2023-08-06T11:16:02;18.80;99.90
6429;DHT22;3247;48.946;10.220;2023-08-06T11:18:28;18.70;99.90
6429;DHT22;3247;48.946;10.220;2023-08-06T11:20:53;18.50;99.90
6429;DHT22;3247;48.946;10.220;2023-08-06T11:23:19;18.50;99.90
6429;DHT22;3247;48.946;10.220;2023-08-06T11:25:44;16.90;99.90
6429;DHT22;3247;48.946;10.220;2023-08-06T11:28:11;17.70;99.90
6429;DHT22;3247;48.946;10.220;2023-08-06T11:30:37;17.40;99.90
6429;DHT22;3247;48.946;10.220;2023-08-06T11:33:03;18.50;99.90
6429;DHT22;3247;48.946;10.220;2023-08-06T11:35:28;17.40;99.90
6429;DHT22;3247;48.946;10.220;2023-08-06T11:37:53;19.20;99.90
6429;DHT22;3247;48.946;10.220;2023-08-06T11:40:19;19.50;99.90
6429;DHT22;3247;48.946;10.220;2023-08-06T11:42:46;19.40;99.90
6429;DHT22;3247;48.946;10.220;2023-08-06T11:45:11;18.40;99.90
6429;DHT22;3247;48.946;10.220;2023-08-06T11:47:40;19.50;99.90
6429;DHT22;3247;48.946;10.220;2023-08-06T11:50:06;17.80;99.90
6429;DHT22;3247;48.946;10.220;2023-08-06T11:52:31;17.50;99.90
6429;DHT22;3247;48.946;10.220;2023-08-06T11:55:07;18.00;99.90
6429;DHT22;3247;48.946;10.220;2023-08-06T11:57:35;17.10;99.90
6429;DHT22;3247;48.946;10.220;2023-08-06T12:00:05;17.90;99.90
6429;DHT22;3247;48.946;10.220;2023-08-06T12:02:34;16.90;99.90
6429;DHT22;3247;48.946;10.220;2023-08-06T12:05:46;16.80;99.90
6429;DHT22;3247;48.946;10.220;2023-08-06T12:07:50;17.30;99.90
6429;DHT22;3247;48.946;10.220;2023-08-06T12:10:16;16.50;99.90
6429;DHT22;3247;48.946;10.220;2023-08-06T12:12:41;16.90;99.90
6429;DHT22;3247;48.946;10.220;2023-08-06T12:15:08;16.80;99.90
6429;DHT22;3247;48.946;10.220;2023-08-06T12:17:41;16.40;99.90
6429;DHT22;3247;48.946;10.220;2023-08-06T12:20:13;16.40;99.90
6429;DHT22;3247;48.946;10.220;2023-08-06T12:22:46;16.50;99.90
6429;DHT22;3247;48.946;10.220;2023-08-06T12:25:17;16.60;99.90
6429;DHT22;3247;48.946;10.220;2023-08-06T12:27:43;16.50;99.90
6429;DHT22;3247;48.946;10.220;2023-08-06T12:30:09;16.50;99.90
6429;DHT22;3247;48.946;10.220;2023-08-06T12:35:31;16.20;99.90
6429;DHT22;3247;48.946;10.220;2023-08-06T12:37:57;16.00;99.90
6429;DHT22;3247;48.946;10.220;2023-08-06T12:40:24;15.90;99.90
6429;DHT22;3247;48.946;10.220;2023-08-06T12:42:50;15.80;99.90
6429;DHT22;3247;48.946;10.220;2023-08-06T12:45:15;15.80;99.90
6429;DHT22;3247;48.946;10.220;2023-08-06T12:47:41;15.90;99.90
6429;DHT22;3247;48.946;10.220;2023-08-06T12:50:09;16.80;99.90
6429;DHT22;3247;48.946;10.220;2023-08-06T12:52:35;15.90;99.90
6429;DHT22;3247;48.946;10.220;2023-08-06T12:55:00;15.90;99.90
6429;DHT22;3247;48.946;10.220;2023-08-06T12:57:26;15.60;99.90
6429;DHT22;3247;48.946;10.220;2023-08-06T12:59:53;15.90;99.90
6429;DHT22;3247;48.946;10.220;2023-08-06T13:02:24;16.90;99.90
6429;DHT22;3247;48.946;10.220;2023-08-06T13:04:55;15.20;99.90
6429;DHT22;3247;48.946;10.220;2023-08-06T13:07:20;15.10;99.90
6429;DHT22;3247;48.946;10.220;2023-08-06T13:09:46;14.30;99.90
6429;DHT22;3247;48.946;10.220;2023-08-06T13:12:11;15.80;99.90
6429;DHT22;3247;48.946;10.220;2023-08-06T13:14:36;14.70;99.90
6429;DHT22;3247;48.946;10.220;2023-08-06T13:17:02;16.10;99.90
6429;DHT22;3247;48.946;10.220;2023-08-06T13:19:27;15.00;99.90
6429;DHT22;3247;48.946;10.220;2023-08-06T13:22:00;15.00;99.90
6429;DHT22;3247;48.946;10.220;2023-08-06T13:24:27;14.80;99.90
6429;DHT22;3247;48.946;10.220;2023-08-06T13:26:53;14.70;99.90
6429;DHT22;3247;48.946;10.220;2023-08-06T13:29:18;15.70;99.90
6429;DHT22;3247;48.946;10.220;2023-08-06T13:31:44;14.70;99.90
6429;DHT22;3247;48.946;10.220;2023-08-06T13:37:03;14.50;99.90
6429;DHT22;3247;48.946;10.220;2023-08-06T13:39:28;14.40;99.90
6429;DHT22;3247;48.946;10.220;2023-08-06T13:41:54;14.30;99.90
6429;DHT22;3247;48.946;10.220;2023-08-06T13:44:19;14.20;99.90
6429;DHT22;3247;48.946;10.220;2023-08-06T13:46:44;14.10;99.90
6429;DHT22;3247;48.946;10.220;2023-08-06T13:49:10;14.10;99.90
6429;DHT22;3247;48.946;10.220;2023-08-06T13:51:35;14.00;99.90
6429;DHT22;3247;48.946;10.220;2023-08-06T13:54:01;14.00;99.90
6429;DHT22;3247;48.946;10.220;2023-08-06T13:56:26;14.10;99.90
6429;DHT22;3247;48.946;10.220;2023-08-06T13:58:52;14.00;99.90
6429;DHT22;3247;48.946;10.220;2023-08-06T14:01:17;15.00;99.90
6429;DHT22;3247;48.946;10.220;2023-08-06T14:03:44;15.00;99.90
6429;DHT22;3247;48.946;10.220;2023-08-06T14:06:09;14.70;99.90
6429;DHT22;3247;48.946;10.220;2023-08-06T14:08:35;15.40;99.90
6429;DHT22;3247;48.946;10.220;2023-08-06T14:11:00;13.70;99.90
6429;DHT22;3247;48.946;10.220;2023-08-06T14:13:26;15.30;99.90
6429;DHT22;3247;48.946;10.220;2023-08-06T14:15:51;15.40;99.90
6429;DHT22;3247;48.946;10.220;2023-08-06T14:18:17;14.10;99.90
6429;DHT22;3247;48.946;10.220;2023-08-06T14:20:43;15.80;99.90
6429;DHT22;3247;48.946;10.220;2023-08-06T14:23:08;14.00;99.90
6429;DHT22;3247;48.946;10.220;2023-08-06T14:25:34;13.70;99.90
6429;DHT22;3247;48.946;10.220;2023-08-06T14:27:59;14.10;99.90
6429;DHT22;3247;48.946;10.220;2023-08-06T14:30:25;15.60;99.90
6429;DHT22;3247;48.946;10.220;2023-08-06T14:32:50;14.40;99.90
6429;DHT22;3247;48.946;10.220;2023-08-06T14:35:16;16.00;99.90
6429;DHT22;3247;48.946;10.220;2023-08-06T14:37:41;14.40;99.90
6429;DHT22;3247;48.946;10.220;2023-08-06T14:40:07;14.70;99.90
6429;DHT22;3247;48.946;10.220;2023-08-06T14:42:33;14.60;99.90
6429;DHT22;3247;48.946;10.220;2023-08-06T14:44:58;14.80;99.90
6429;DHT22;3247;48.946;10.220;2023-08-06T14:47:23;14.40;99.90
6429;DHT22;3247;48.946;10.220;2023-08-06T14:49:49;14.90;99.90
6429;DHT22;3247;48.946;10.220;2023-08-06T14:52:16;15.80;99.90
6429;DHT22;3247;48.946;10.220;2023-08-06T14:54:41;15.00;99.90
6429;DHT22;3247;48.946;10.220;2023-08-06T14:57:07;14.20;99.90
6429;DHT22;3247;48.946;10.220;2023-08-06T14:59:33;14.10;99.90
6429;DHT22;3247;48.946;10.220;2023-08-06T15:01:59;15.90;99.90
6429;DHT22;3247;48.946;10.220;2023-08-06T15:07:27;14.20;99.90
6429;DHT22;3247;48.946;10.220;2023-08-06T15:09:54;14.20;99.90
6429;DHT22;3247;48.946;10.220;2023-08-06T15:12:21;14.10;99.90
6429;DHT22;3247;48.946;10.220;2023-08-06T15:14:46;14.10;99.90
6429;DHT22;3247;48.946;10.220;2023-08-06T15:17:11;14.10;99.90
6429;DHT22;3247;48.946;10.220;2023-08-06T15:19:37;14.30;99.90
6429;DHT22;3247;48.946;10.220;2023-08-06T15:22:03;14.20;99.90
6429;DHT22;3247;48.946;10.220;2023-08-06T15:24:28;14.20;99.90
6429;DHT22;3247;48.946;10.220;2023-08-06T15:26:54;14.30;99.90
6429;DHT22;3247;48.946;10.220;2023-08-06T15:29:19;14.30;99.90
6429;DHT22;3247;48.946;10.220;2023-08-06T15:31:45;15.30;99.90
6429;DHT22;3247;48.946;10.220;2023-08-06T15:34:23;14.40;99.90
6429;DHT22;3247;48.946;10.220;2023-08-06T15:36:48;14.40;99.90
6429;DHT22;3247;48.946;10.220;2023-08-06T15:39:14;15.10;99.90
6429;DHT22;3247;48.946;10.220;2023-08-06T15:41:40;16.00;99.90
6429;DHT22;3247;48.946;10.220;2023-08-06T15:44:05;14.50;99.90
6429;DHT22;3247;48.946;10.220;2023-08-06T15:46:31;16.00;99.90
6429;DHT22;3247;48.946;10.220;2023-08-06T15:48:56;16.30;99.90
6429;DHT22;3247;48.946;10.220;2023-08-06T15:51:22;14.60;99.90
6429;DHT22;3247;48.946;10.220;2023-08-06T15:53:47;14.70;99.90
6429;DHT22;3247;48.946;10.220;2023-08-06T15:56:13;16.00;99.90
6429;DHT22;3247;48.946;10.220;2023-08-06T15:58:38;15.10;99.90
6429;DHT22;3247;48.946;10.220;2023-08-06T16:01:04;15.90;99.90
6429;DHT22;3247;48.946;10.220;2023-08-06T16:03:39;15.10;99.90
6429;DHT22;3247;48.946;10.220;2023-08-06T16:06:06;14.70;99.90
6429;DHT22;3247;48.946;10.220;2023-08-06T16:08:35;15.60;99.90
6429;DHT22;3247;48.946;10.220;2023-08-06T16:11:01;15.60;99.90
6429;DHT22;3247;48.946;10.220;2023-08-06T16:13:27;15.80;99.90
6429;DHT22;3247;48.946;10.220;2023-08-06T16:15:52;14.20;99.90
6429;DHT22;3247;48.946;10.220;2023-08-06T16:18:18;15.60;99.90
6429;DHT22;3247;48.946;10.220;2023-08-06T16:20:43;14.70;99.90
6429;DHT22;3247;48.946;10.220;2023-08-06T16:23:09;14.90;99.90
6429;DHT22;3247;48.946;10.220;2023-08-06T16:25:41;15.10;99.90
6429;DHT22;3247;48.946;10.220;2023-08-06T16:28:11;14.60;99.90
6429;DHT22;3247;48.946;10.220;2023-08-06T16:30:43;14.50;99.90
6429;DHT22;3247;48.946;10.220;2023-08-06T16:33:08;15.90;99.90
6429;DHT22;3247;48.946;10.220;2023-08-06T16:35:34;15.50;99.90
6429;DHT22;3247;48.946;10.220;2023-08-06T16:38:00;14.30;99.90
6429;DHT22;3247;48.946;10.220;2023-08-06T16:40:26;13.00;99.90
6429;DHT22;3247;48.946;10.220;2023-08-06T16:42:51;14.60;99.90
6429;DHT22;3247;48.946;10.220;2023-08-06T16:45:18;12.90;99.90
6429;DHT22;3247;48.946;10.220;2023-08-06T16:47:43;15.10;99.90
6429;DHT22;3247;48.946;10.220;2023-08-06T16:50:09;15.20;99.90
6429;DHT22;3247;48.946;10.220;2023-08-06T16:52:34;13.70;99.90
6429;DHT22;3247;48.946;10.220;2023-08-06T16:55:00;14.60;99.90
6429;DHT22;3247;48.946;10.220;2023-08-06T16:57:29;13.60;99.90
6429;DHT22;3247;48.946;10.220;2023-08-06T16:59:55;13.50;99.90
6429;DHT22;3247;48.946;10.220;2023-08-06T17:02:21;13.90;99.90
6429;DHT22;3247;48.946;10.220;2023-08-06T17:04:47;12.10;99.90
6429;DHT22;3247;48.946;10.220;2023-08-06T17:07:12;14.60;99.90
6429;DHT22;3247;48.946;10.220;2023-08-06T17:09:38;13.40;99.90
6429;DHT22;3247;48.946;10.220;2023-08-06T18:42:13;12.40;99.90
6429;DHT22;3247;48.946;10.220;2023-08-06T18:45:20;11.40;99.90
6429;DHT22;3247;48.946;10.220;2023-08-06T18:48:01;12.20;99.90
6429;DHT22;3247;48.946;10.220;2023-08-06T18:50:36;12.00;99.90
6429;DHT22;3247;48.946;10.220;2023-08-06T18:53:02;12.80;99.90
6429;DHT22;3247;48.946;10.220;2023-08-06T18:55:29;13.40;99.90
6429;DHT22;3247;48.946;10.220;2023-08-06T18:57:56;13.10;99.90
6429;DHT22;3247;48.946;10.220;2023-08-06T19:00:22;12.70;99.90
6429;DHT22;3247;48.946;10.220;2023-08-06T19:02:51;12.10;99.90
6429;DHT22;3247;48.946;10.220;2023-08-06T19:05:16;12.20;99.90
6429;DHT22;3247;48.946;10.220;2023-08-06T19:07:42;13.60;99.90
6429;DHT22;3247;48.946;10.220;2023-08-06T19:10:07;12.00;99.90
6429;DHT22;3247;48.946;10.220;2023-08-06T19:12:33;12.10;99.90
6429;DHT22;3247;48.946;10.220;2023-08-06T19:14:58;12.10;99.90
6429;DHT22;3247;48.946;10.220;2023-08-06T19:17:24;12.70;99.90
6429;DHT22;3247;48.946;10.220;2023-08-06T19:19:49;13.20;99.90
6429;DHT22;3247;48.946;10.220;2023-08-06T19:22:15;12.00;99.90
6429;DHT22;3247;48.946;10.220;2023-08-06T19:24:40;12.00;99.90
6429;DHT22;3247;48.946;10.220;2023-08-06T19:27:06;12.00;99.90
6429;DHT22;3247;48.946;10.220;2023-08-06T19:29:31;12.00;99.90
6429;DHT22;3247;48.946;10.220;2023-08-06T19:31:57;12.00;99.90
6429;DHT22;3247;48.946;10.220;2023-08-06T19:37:13;12.00;99.90
6429;DHT22;3247;48.946;10.220;2023-08-06T19:39:39;12.00;99.90
6429;DHT22;3247;48.946;10.220;2023-08-06T19:42:04;11.90;99.90
6429;DHT22;3247;48.946;10.220;2023-08-06T19:44:30;11.90;99.90
6429;DHT22;3247;48.946;10.220;2023-08-06T19:46:55;11.90;99.90
6429;DHT22;3247;48.946;10.220;2023-08-06T19:49:21;11.90;99.90
6429;DHT22;3247;48.946;10.220;2023-08-06T19:51:46;12.50;99.90
6429;DHT22;3247;48.946;10.220;2023-08-06T19:54:12;11.90;99.90
6429;DHT22;3247;48.946;10.220;2023-08-06T19:56:37;12.00;99.90
6429;DHT22;3247;48.946;10.220;2023-08-06T19:59:03;12.00;99.90
6429;DHT22;3247;48.946;10.220;2023-08-06T20:01:29;12.70;99.90
6429;DHT22;3247;48.946;10.220;2023-08-06T20:06:51;12.00;99.90
6429;DHT22;3247;48.946;10.220;2023-08-06T20:09:18;11.90;99.90
6429;DHT22;3247;48.946;10.220;2023-08-06T20:11:44;11.90;99.90
6429;DHT22;3247;48.946;10.220;2023-08-06T20:14:09;11.90;99.90
6429;DHT22;3247;48.946;10.220;2023-08-06T20:16:35;11.90;99.90
6429;DHT22;3247;48.946;10.220;2023-08-06T20:19:00;11.90;99.90
6429;DHT22;3247;48.946;10.220;2023-08-06T20:21:26;11.90;99.90
6429;DHT22;3247;48.946;10.220;2023-08-06T20:23:51;11.90;99.90
6429;DHT22;3247;48.946;10.220;2023-08-06T20:26:17;11.90;99.90
6429;DHT22;3247;48.946;10.220;2023-08-06T20:28:43;11.90;99.90
6429;DHT22;3247;48.946;10.220;2023-08-06T20:31:08;11.90;99.90
6429;DHT22;3247;48.946;10.220;2023-08-06T20:33:34;11.90;99.90
6429;DHT22;3247;48.946;10.220;2023-08-06T20:36:01;11.90;99.90
6429;DHT22;3247;48.946;10.220;2023-08-06T20:38:26;11.90;99.90
6429;DHT22;3247;48.946;10.220;2023-08-06T20:40:52;11.70;99.90
6429;DHT22;3247;48.946;10.220;2023-08-06T20:43:20;11.90;99.90
6429;DHT22;3247;48.946;10.220;2023-08-06T20:45:56;11.80;99.90
6429;DHT22;3247;48.946;10.220;2023-08-06T20:48:23;11.80;99.90
6429;DHT22;3247;48.946;10.220;2023-08-06T20:50:50;11.90;99.90
6429;DHT22;3247;48.946;10.220;2023-08-06T20:53:15;11.80;99.90
6429;DHT22;3247;48.946;10.220;2023-08-06T20:55:41;12.60;99.90
6429;DHT22;3247;48.946;10.220;2023-08-06T20:58:07;11.90;99.90
6429;DHT22;3247;48.946;10.220;2023-08-06T21:00:34;11.90;99.90
6429;DHT22;3247;48.946;10.220;2023-08-06T21:02:59;11.70;99.90
6429;DHT22;3247;48.946;10.220;2023-08-06T21:05:25;11.40;99.90
6429;DHT22;3247;48.946;10.220;2023-08-06T21:07:52;11.80;99.90
6429;DHT22;3247;48.946;10.220;2023-08-06T21:10:17;11.90;99.90
6429;DHT22;3247;48.946;10.220;2023-08-06T21:12:43;12.00;99.90
6429;DHT22;3247;48.946;10.220;2023-08-06T21:15:09;12.20;99.90
6429;DHT22;3247;48.946;10.220;2023-08-06T21:17:35;11.70;99.90
6429;DHT22;3247;48.946;10.220;2023-08-06T21:20:01;11.80;99.90
6429;DHT22;3247;48.946;10.220;2023-08-06T21:22:26;12.80;99.90
6429;DHT22;3247;48.946;10.220;2023-08-06T21:24:52;11.70;99.90
6429;DHT22;3247;48.946;10.220;2023-08-06T21:27:17;11.70;99.90
6429;DHT22;3247;48.946;10.220;2023-08-06T21:29:43;12.00;99.90
6429;DHT22;3247;48.946;10.220;2023-08-06T21:32:09;11.50;99.90
6429;DHT22;3247;48.946;10.220;2023-08-06T21:34:38;12.40;99.90
6429;DHT22;3247;48.946;10.220;2023-08-06T21:37:04;11.60;99.90
6429;DHT22;3247;48.946;10.220;2023-08-06T21:39:29;11.50;99.90
6429;DHT22;3247;48.946;10.220;2023-08-06T21:41:55;11.60;99.90
6429;DHT22;3247;48.946;10.220;2023-08-06T21:44:25;12.70;99.90
6429;DHT22;3247;48.946;10.220;2023-08-06T21:46:52;12.10;99.90
6429;DHT22;3247;48.946;10.220;2023-08-06T21:49:20;13.00;99.90
6429;DHT22;3247;48.946;10.220;2023-08-06T21:51:46;11.50;99.90
6429;DHT22;3247;48.946;10.220;2023-08-06T21:54:12;10.90;99.90
6429;DHT22;3247;48.946;10.220;2023-08-06T21:56:41;12.10;99.90
6429;DHT22;3247;48.946;10.220;2023-08-06T21:59:07;10.10;99.90
6429;DHT22;3247;48.946;10.220;2023-08-06T22:01:32;11.90;99.90
6429;DHT22;3247;48.946;10.220;2023-08-06T22:07:01;11.30;99.90
6429;DHT22;3247;48.946;10.220;2023-08-06T22:09:27;10.70;99.90
6429;DHT22;3247;48.946;10.220;2023-08-06T22:11:52;11.00;99.90
6429;DHT22;3247;48.946;10.220;2023-08-06T22:14:18;12.20;99.90
6429;DHT22;3247;48.946;10.220;2023-08-06T22:16:43;12.10;99.90
6429;DHT22;3247;48.946;10.220;2023-08-06T22:21:48;11.20;99.90
6429;DHT22;3247;48.946;10.220;2023-08-06T22:24:17;10.00;99.90
6429;DHT22;3247;48.946;10.220;2023-08-06T22:26:42;11.30;99.90
6429;DHT22;3247;48.946;10.220;2023-08-06T22:29:08;10.70;99.90
6429;DHT22;3247;48.946;10.220;2023-08-06T22:31:33;12.10;99.90
6429;DHT22;3247;48.946;10.220;2023-08-06T22:37:02;11.20;99.90
6429;DHT22;3247;48.946;10.220;2023-08-06T22:39:28;11.10;99.90
6429;DHT22;3247;48.946;10.220;2023-08-06T22:41:53;11.10;99.90
6429;DHT22;3247;48.946;10.220;2023-08-06T22:44:19;11.90;99.90
6429;DHT22;3247;48.946;10.220;2023-08-06T22:46:47;12.00;99.90
6429;DHT22;3247;48.946;10.220;2023-08-06T22:49:13;10.20;99.90
6429;DHT22;3247;48.946;10.220;2023-08-06T22:51:38;11.10;99.90
6429;DHT22;3247;48.946;10.220;2023-08-06T22:54:04;11.80;99.90
6429;DHT22;3247;48.946;10.220;2023-08-06T22:56:29;12.00;99.90
6429;DHT22;3247;48.946;10.220;2023-08-06T22:58:55;11.00;99.90
6429;DHT22;3247;48.946;10.220;2023-08-06T23:01:21;11.00;99.90
6429;DHT22;3247;48.946;10.220;2023-08-06T23:06:50;10.60;99.90
6429;DHT22;3247;48.946;10.220;2023-08-06T23:09:15;11.00;99.90
6429;DHT22;3247;48.946;10.220;2023-08-06T23:11:41;11.40;99.90
6429;DHT22;3247;48.946;10.220;2023-08-06T23:14:08;10.40;99.90
6429;DHT22;3247;48.946;10.220;2023-08-06T23:16:34;10.20;99.90
6429;DHT22;3247;48.946;10.220;2023-08-06T23:19:00;10.90;99.90
6429;DHT22;3247;48.946;10.220;2023-08-06T23:21:29;12.30;99.90
6429;DHT22;3247;48.946;10.220;2023-08-06T23:23:56;9.90;99.90
6429;DHT22;3247;48.946;10.220;2023-08-06T23:26:23;10.50;99.90
6429;DHT22;3247;48.946;10.220;2023-08-06T23:28:49;10.90;99.90
6429;DHT22;3247;48.946;10.220;2023-08-06T23:31:18;11.00;99.90
6429;DHT22;3247;48.946;10.220;2023-08-06T23:33:49;11.00;99.90
6429;DHT22;3247;48.946;10.220;2023-08-06T23:36:17;11.90;99.90
6429;DHT22;3247;48.946;10.220;2023-08-06T23:38:43;10.40;99.90
6429;DHT22;3247;48.946;10.220;2023-08-06T23:41:09;10.00;99.90
6429;DHT22;3247;48.946;10.220;2023-08-06T23:43:35;12.00;99.90
6429;DHT22;3247;48.946;10.220;2023-08-06T23:46:07;10.20;99.90
6429;DHT22;3247;48.946;10.220;2023-08-06T23:48:34;10.30;99.90
6429;DHT22;3247;48.946;10.220;2023-08-06T23:50:59;11.90;99.90
6429;DHT22;3247;48.946;10.220;2023-08-06T23:53:26;10.90;99.90
6429;DHT22;3247;48.946;10.220;2023-08-06T23:55:52;9.50;99.90
6429;DHT22;3247;48.946;10.220;2023-08-06T23:58:17;10.80;99.90
